sensor_id;sensor_type;location;lat;lon;timestamp;temperature;humidity
11446;DHT22;5779;64.178;15.432;2023-06-04T00:01:18;5.60;99.90
11446;DHT22;5779;64.178;15.432;2023-06-04T00:04:05;5.60;99.90
11446;DHT22;5779;64.178;15.432;2023-06-04T00:06:53;5.60;99.90
11446;DHT22;5779;64.178;15.432;2023-06-04T00:09:41;5.60;99.90
11446;DHT22;5779;64.178;15.432;2023-06-04T00:12:29;5.60;99.90
11446;DHT22;5779;64.178;15.432;2023-06-04T00:15:16;5.50;99.90
11446;DHT22;5779;64.178;15.432;2023-06-04T00:18:02;5.60;99.90
11446;DHT22;5779;64.178;15.432;2023-06-04T00:20:49;5.60;99.90
11446;DHT22;5779;64.178;15.432;2023-06-04T00:23:36;5.50;99.90
11446;DHT22;5779;64.178;15.432;2023-06-04T00:26:24;5.50;99.90
11446;DHT22;5779;64.178;15.432;2023-06-04T00:29:11;5.50;99.90
11446;DHT22;5779;64.178;15.432;2023-06-04T00:31:58;5.40;99.90
11446;DHT22;5779;64.178;15.432;2023-06-04T00:34:50;5.50;99.90
11446;DHT22;5779;64.178;15.432;2023-06-04T00:37:37;5.50;99.90
11446;DHT22;5779;64.178;15.432;2023-06-04T00:40:24;5.50;99.90
11446;DHT22;5779;64.178;15.432;2023-06-04T00:43:13;5.50;99.90
11446;DHT22;5779;64.178;15.432;2023-06-04T00:46:00;5.50;99.90
11446;DHT22;5779;64.178;15.432;2023-06-04T00:48:48;5.50;99.90
11446;DHT22;5779;64.178;15.432;2023-06-04T00:51:35;5.40;99.90
11446;DHT22;5779;64.178;15.432;2023-06-04T00:54:22;5.50;99.90
11446;DHT22;5779;64.178;15.432;2023-06-04T00:57:09;5.50;99.90
11446;DHT22;5779;64.178;15.432;2023-06-04T00:59:57;5.50;99.90
11446;DHT22;5779;64.178;15.432;2023-06-04T01:02:47;5.50;99.90
11446;DHT22;5779;64.178;15.432;2023-06-04T01:05:39;5.50;99.90
11446;DHT22;5779;64.178;15.432;2023-06-04T01:08:27;5.40;99.90
11446;DHT22;5779;64.178;15.432;2023-06-04T01:11:14;5.40;99.90
11446;DHT22;5779;64.178;15.432;2023-06-04T01:14:02;5.40;99.90
11446;DHT22;5779;64.178;15.432;2023-06-04T01:16:56;5.30;99.90
11446;DHT22;5779;64.178;15.432;2023-06-04T01:23:25;5.40;99.90
11446;DHT22;5779;64.178;15.432;2023-06-04T01:26:18;5.40;99.90
11446;DHT22;5779;64.178;15.432;2023-06-04T01:29:05;5.40;99.90
11446;DHT22;5779;64.178;15.432;2023-06-04T01:31:54;5.40;99.90
11446;DHT22;5779;64.178;15.432;2023-06-04T01:34:45;5.30;99.90
11446;DHT22;5779;64.178;15.432;2023-06-04T01:37:32;5.40;99.90
11446;DHT22;5779;64.178;15.432;2023-06-04T01:40:19;5.40;99.90
11446;DHT22;5779;64.178;15.432;2023-06-04T01:43:05;5.40;99.90
11446;DHT22;5779;64.178;15.432;2023-06-04T01:45:52;5.40;99.90
11446;DHT22;5779;64.178;15.432;2023-06-04T01:48:41;5.40;99.90
11446;DHT22;5779;64.178;15.432;2023-06-04T01:51:28;5.40;99.90
11446;DHT22;5779;64.178;15.432;2023-06-04T01:54:15;5.50;99.90
11446;DHT22;5779;64.178;15.432;2023-06-04T01:57:01;5.50;99.90
11446;DHT22;5779;64.178;15.432;2023-06-04T01:59:48;5.40;99.90
11446;DHT22;5779;64.178;15.432;2023-06-04T02:02:36;5.40;99.90
11446;DHT22;5779;64.178;15.432;2023-06-04T02:05:24;5.40;99.90
11446;DHT22;5779;64.178;15.432;2023-06-04T02:08:11;5.50;99.90
11446;DHT22;5779;64.178;15.432;2023-06-04T02:11:04;5.40;99.90
11446;DHT22;5779;64.178;15.432;2023-06-04T02:13:50;5.40;99.90
11446;DHT22;5779;64.178;15.432;2023-06-04T02:16:37;5.40;99.90
11446;DHT22;5779;64.178;15.432;2023-06-04T02:19:25;5.40;99.90
11446;DHT22;5779;64.178;15.432;2023-06-04T02:22:13;5.40;99.90
11446;DHT22;5779;64.178;15.432;2023-06-04T02:25:00;5.40;99.90
11446;DHT22;5779;64.178;15.432;2023-06-04T02:27:47;5.40;99.90
11446;DHT22;5779;64.178;15.432;2023-06-04T02:30:34;5.40;99.90
11446;DHT22;5779;64.178;15.432;2023-06-04T02:33:21;5.40;99.90
11446;DHT22;5779;64.178;15.432;2023-06-04T02:36:08;5.40;99.90
11446;DHT22;5779;64.178;15.432;2023-06-04T02:38:56;5.40;99.90
11446;DHT22;5779;64.178;15.432;2023-06-04T02:41:43;5.40;99.90
11446;DHT22;5779;64.178;15.432;2023-06-04T02:44:30;5.40;99.90
11446;DHT22;5779;64.178;15.432;2023-06-04T02:47:17;5.40;99.90
11446;DHT22;5779;64.178;15.432;2023-06-04T02:50:05;5.40;99.90
11446;DHT22;5779;64.178;15.432;2023-06-04T02:52:52;5.50;99.90
11446;DHT22;5779;64.178;15.432;2023-06-04T02:55:41;5.40;99.90
11446;DHT22;5779;64.178;15.432;2023-06-04T02:58:28;5.50;99.90
11446;DHT22;5779;64.178;15.432;2023-06-04T03:01:18;5.50;99.90
11446;DHT22;5779;64.178;15.432;2023-06-04T03:04:06;5.50;99.90
11446;DHT22;5779;64.178;15.432;2023-06-04T03:06:55;5.60;99.90
11446;DHT22;5779;64.178;15.432;2023-06-04T03:09:42;5.60;99.90
11446;DHT22;5779;64.178;15.432;2023-06-04T03:12:31;5.70;99.90
11446;DHT22;5779;64.178;15.432;2023-06-04T03:15:18;5.70;99.90
11446;DHT22;5779;64.178;15.432;2023-06-04T03:18:05;5.60;99.90
11446;DHT22;5779;64.178;15.432;2023-06-04T03:20:52;5.60;99.90
11446;DHT22;5779;64.178;15.432;2023-06-04T03:23:39;5.50;99.90
11446;DHT22;5779;64.178;15.432;2023-06-04T03:26:26;5.50;99.90
11446;DHT22;5779;64.178;15.432;2023-06-04T03:29:14;5.50;99.90
11446;DHT22;5779;64.178;15.432;2023-06-04T03:32:01;5.50;99.90
11446;DHT22;5779;64.178;15.432;2023-06-04T03:34:48;5.60;99.90
11446;DHT22;5779;64.178;15.432;2023-06-04T03:37:35;5.50;99.90
11446;DHT22;5779;64.178;15.432;2023-06-04T03:40:22;5.50;99.90
11446;DHT22;5779;64.178;15.432;2023-06-04T03:43:09;5.50;99.90
11446;DHT22;5779;64.178;15.432;2023-06-04T03:45:58;5.50;99.90
11446;DHT22;5779;64.178;15.432;2023-06-04T03:48:45;5.50;99.90
11446;DHT22;5779;64.178;15.432;2023-06-04T03:51:32;5.50;99.90
11446;DHT22;5779;64.178;15.432;2023-06-04T03:54:20;5.60;99.90
11446;DHT22;5779;64.178;15.432;2023-06-04T03:57:06;5.70;99.90
11446;DHT22;5779;64.178;15.432;2023-06-04T03:59:53;5.70;99.90
11446;DHT22;5779;64.178;15.432;2023-06-04T04:02:42;5.80;99.90
11446;DHT22;5779;64.178;15.432;2023-06-04T04:05:29;6.00;99.90
11446;DHT22;5779;64.178;15.432;2023-06-04T04:08:15;6.00;99.90
11446;DHT22;5779;64.178;15.432;2023-06-04T04:11:03;6.10;99.90
11446;DHT22;5779;64.178;15.432;2023-06-04T04:13:50;6.10;99.90
11446;DHT22;5779;64.178;15.432;2023-06-04T04:16:36;6.00;99.90
11446;DHT22;5779;64.178;15.432;2023-06-04T04:19:25;5.90;99.90
11446;DHT22;5779;64.178;15.432;2023-06-04T04:22:13;5.90;99.90
11446;DHT22;5779;64.178;15.432;2023-06-04T04:25:02;5.90;99.90
11446;DHT22;5779;64.178;15.432;2023-06-04T04:27:49;6.00;99.90
11446;DHT22;5779;64.178;15.432;2023-06-04T04:30:36;6.10;99.90
11446;DHT22;5779;64.178;15.432;2023-06-04T04:33:23;6.20;99.90
11446;DHT22;5779;64.178;15.432;2023-06-04T04:36:12;6.30;99.90
11446;DHT22;5779;64.178;15.432;2023-06-04T04:38:59;6.30;99.90
11446;DHT22;5779;64.178;15.432;2023-06-04T04:41:45;6.30;99.90
11446;DHT22;5779;64.178;15.432;2023-06-04T04:44:32;6.20;99.90
11446;DHT22;5779;64.178;15.432;2023-06-04T04:47:20;6.30;99.90
11446;DHT22;5779;64.178;15.432;2023-06-04T04:50:07;6.30;99.90
11446;DHT22;5779;64.178;15.432;2023-06-04T04:52:55;6.30;99.90
11446;DHT22;5779;64.178;15.432;2023-06-04T04:55:42;6.30;99.90
11446;DHT22;5779;64.178;15.432;2023-06-04T04:58:29;6.30;99.90
11446;DHT22;5779;64.178;15.432;2023-06-04T05:01:16;6.30;99.90
11446;DHT22;5779;64.178;15.432;2023-06-04T05:04:03;6.30;99.90
11446;DHT22;5779;64.178;15.432;2023-06-04T05:06:50;6.00;99.90
11446;DHT22;5779;64.178;15.432;2023-06-04T05:09:39;6.00;99.90
11446;DHT22;5779;64.178;15.432;2023-06-04T05:12:26;6.00;99.90
11446;DHT22;5779;64.178;15.432;2023-06-04T05:15:13;6.00;99.90
11446;DHT22;5779;64.178;15.432;2023-06-04T05:18:02;6.10;99.90
11446;DHT22;5779;64.178;15.432;2023-06-04T05:20:49;6.20;99.90
11446;DHT22;5779;64.178;15.432;2023-06-04T05:23:36;6.40;99.90
11446;DHT22;5779;64.178;15.432;2023-06-04T05:26:25;6.40;99.90
11446;DHT22;5779;64.178;15.432;2023-06-04T05:29:12;6.50;99.90
11446;DHT22;5779;64.178;15.432;2023-06-04T05:31:59;6.70;99.90
11446;DHT22;5779;64.178;15.432;2023-06-04T05:34:46;6.60;99.90
11446;DHT22;5779;64.178;15.432;2023-06-04T05:37:33;6.60;99.90
11446;DHT22;5779;64.178;15.432;2023-06-04T05:40:20;6.50;99.90
11446;DHT22;5779;64.178;15.432;2023-06-04T05:43:09;6.50;99.90
11446;DHT22;5779;64.178;15.432;2023-06-04T05:45:56;6.60;99.90
11446;DHT22;5779;64.178;15.432;2023-06-04T05:48:43;6.80;99.90
11446;DHT22;5779;64.178;15.432;2023-06-04T05:51:29;6.80;99.90
11446;DHT22;5779;64.178;15.432;2023-06-04T05:54:16;7.00;99.90
11446;DHT22;5779;64.178;15.432;2023-06-04T05:57:04;6.80;99.90
11446;DHT22;5779;64.178;15.432;2023-06-04T05:59:52;6.80;99.90
11446;DHT22;5779;64.178;15.432;2023-06-04T06:02:39;6.70;99.90
11446;DHT22;5779;64.178;15.432;2023-06-04T06:05:26;6.70;99.90
11446;DHT22;5779;64.178;15.432;2023-06-04T06:08:14;6.80;99.90
11446;DHT22;5779;64.178;15.432;2023-06-04T06:11:01;6.90;99.90
11446;DHT22;5779;64.178;15.432;2023-06-04T06:13:49;6.80;99.90
11446;DHT22;5779;64.178;15.432;2023-06-04T06:16:38;6.80;99.90
11446;DHT22;5779;64.178;15.432;2023-06-04T06:19:25;6.80;99.90
11446;DHT22;5779;64.178;15.432;2023-06-04T06:22:12;6.80;99.90
11446;DHT22;5779;64.178;15.432;2023-06-04T06:25:05;6.90;99.90
11446;DHT22;5779;64.178;15.432;2023-06-04T06:27:53;6.90;99.90
11446;DHT22;5779;64.178;15.432;2023-06-04T06:30:41;7.00;99.90
11446;DHT22;5779;64.178;15.432;2023-06-04T06:33:30;7.10;99.90
11446;DHT22;5779;64.178;15.432;2023-06-04T06:36:17;7.10;99.90
11446;DHT22;5779;64.178;15.432;2023-06-04T06:39:05;7.20;99.90
11446;DHT22;5779;64.178;15.432;2023-06-04T06:41:52;7.50;99.90
11446;DHT22;5779;64.178;15.432;2023-06-04T06:44:39;7.50;99.90
11446;DHT22;5779;64.178;15.432;2023-06-04T06:47:27;7.70;99.90
11446;DHT22;5779;64.178;15.432;2023-06-04T06:50:16;7.90;99.90
11446;DHT22;5779;64.178;15.432;2023-06-04T06:53:03;8.00;99.90
11446;DHT22;5779;64.178;15.432;2023-06-04T06:55:49;8.00;99.90
11446;DHT22;5779;64.178;15.432;2023-06-04T06:58:36;7.90;99.90
11446;DHT22;5779;64.178;15.432;2023-06-04T07:01:23;7.90;99.90
11446;DHT22;5779;64.178;15.432;2023-06-04T07:04:10;7.80;99.90
11446;DHT22;5779;64.178;15.432;2023-06-04T07:06:58;7.60;99.90
11446;DHT22;5779;64.178;15.432;2023-06-04T07:09:46;7.60;99.90
11446;DHT22;5779;64.178;15.432;2023-06-04T07:12:32;7.30;99.90
11446;DHT22;5779;64.178;15.432;2023-06-04T07:15:19;7.50;99.90
11446;DHT22;5779;64.178;15.432;2023-06-04T07:18:06;7.80;99.90
11446;DHT22;5779;64.178;15.432;2023-06-04T07:20:53;7.90;99.90
11446;DHT22;5779;64.178;15.432;2023-06-04T07:23:41;8.00;99.90
11446;DHT22;5779;64.178;15.432;2023-06-04T07:26:32;8.00;99.90
11446;DHT22;5779;64.178;15.432;2023-06-04T07:29:19;7.90;99.90
11446;DHT22;5779;64.178;15.432;2023-06-04T07:32:06;7.90;99.90
11446;DHT22;5779;64.178;15.432;2023-06-04T07:34:53;8.10;99.90
11446;DHT22;5779;64.178;15.432;2023-06-04T07:37:40;8.00;99.90
11446;DHT22;5779;64.178;15.432;2023-06-04T07:40:31;8.00;99.90
11446;DHT22;5779;64.178;15.432;2023-06-04T07:43:17;7.90;99.90
11446;DHT22;5779;64.178;15.432;2023-06-04T07:46:04;8.10;99.90
11446;DHT22;5779;64.178;15.432;2023-06-04T07:48:51;7.90;99.90
11446;DHT22;5779;64.178;15.432;2023-06-04T07:51:38;7.90;99.90
11446;DHT22;5779;64.178;15.432;2023-06-04T07:54:25;7.90;99.90
11446;DHT22;5779;64.178;15.432;2023-06-04T07:57:14;7.90;99.90
11446;DHT22;5779;64.178;15.432;2023-06-04T08:00:01;8.00;99.90
11446;DHT22;5779;64.178;15.432;2023-06-04T08:02:50;7.90;99.90
11446;DHT22;5779;64.178;15.432;2023-06-04T08:05:37;8.00;99.90
11446;DHT22;5779;64.178;15.432;2023-06-04T08:08:24;7.80;99.90
11446;DHT22;5779;64.178;15.432;2023-06-04T08:11:11;7.80;99.90
11446;DHT22;5779;64.178;15.432;2023-06-04T08:13:59;7.70;99.90
11446;DHT22;5779;64.178;15.432;2023-06-04T08:16:46;7.70;99.90
11446;DHT22;5779;64.178;15.432;2023-06-04T08:19:33;7.70;99.90
11446;DHT22;5779;64.178;15.432;2023-06-04T08:22:20;8.20;99.90
11446;DHT22;5779;64.178;15.432;2023-06-04T08:25:08;8.50;99.90
11446;DHT22;5779;64.178;15.432;2023-06-04T08:27:55;8.20;99.90
11446;DHT22;5779;64.178;15.432;2023-06-04T08:30:43;8.40;99.90
11446;DHT22;5779;64.178;15.432;2023-06-04T08:33:30;8.80;99.90
11446;DHT22;5779;64.178;15.432;2023-06-04T08:36:17;9.20;99.90
11446;DHT22;5779;64.178;15.432;2023-06-04T08:39:04;9.10;99.90
11446;DHT22;5779;64.178;15.432;2023-06-04T08:41:53;9.10;99.90
11446;DHT22;5779;64.178;15.432;2023-06-04T08:44:41;9.30;99.90
11446;DHT22;5779;64.178;15.432;2023-06-04T08:47:32;9.10;99.90
11446;DHT22;5779;64.178;15.432;2023-06-04T08:50:21;9.10;99.90
11446;DHT22;5779;64.178;15.432;2023-06-04T08:53:09;9.30;99.90
11446;DHT22;5779;64.178;15.432;2023-06-04T08:55:57;8.80;99.90
11446;DHT22;5779;64.178;15.432;2023-06-04T08:58:46;8.90;99.90
11446;DHT22;5779;64.178;15.432;2023-06-04T09:01:33;9.60;99.90
11446;DHT22;5779;64.178;15.432;2023-06-04T09:04:24;9.10;99.90
11446;DHT22;5779;64.178;15.432;2023-06-04T09:07:12;9.30;99.90
11446;DHT22;5779;64.178;15.432;2023-06-04T09:10:00;9.20;99.90
11446;DHT22;5779;64.178;15.432;2023-06-04T09:12:47;9.50;99.90
11446;DHT22;5779;64.178;15.432;2023-06-04T09:15:35;9.80;99.90
11446;DHT22;5779;64.178;15.432;2023-06-04T09:18:25;9.50;99.90
11446;DHT22;5779;64.178;15.432;2023-06-04T09:21:14;9.70;99.90
11446;DHT22;5779;64.178;15.432;2023-06-04T09:24:00;9.70;99.90
11446;DHT22;5779;64.178;15.432;2023-06-04T09:26:48;9.40;99.90
11446;DHT22;5779;64.178;15.432;2023-06-04T09:29:35;9.40;99.90
11446;DHT22;5779;64.178;15.432;2023-06-04T09:32:22;9.40;99.90
11446;DHT22;5779;64.178;15.432;2023-06-04T09:35:10;9.50;99.90
11446;DHT22;5779;64.178;15.432;2023-06-04T09:37:59;9.50;99.90
11446;DHT22;5779;64.178;15.432;2023-06-04T09:40:46;9.50;99.90
11446;DHT22;5779;64.178;15.432;2023-06-04T09:43:34;9.40;99.90
11446;DHT22;5779;64.178;15.432;2023-06-04T09:46:21;10.00;99.90
11446;DHT22;5779;64.178;15.432;2023-06-04T09:49:08;10.60;99.90
11446;DHT22;5779;64.178;15.432;2023-06-04T09:51:55;10.50;99.90
11446;DHT22;5779;64.178;15.432;2023-06-04T09:54:45;10.50;99.90
11446;DHT22;5779;64.178;15.432;2023-06-04T09:57:32;10.50;99.90
11446;DHT22;5779;64.178;15.432;2023-06-04T10:00:22;10.40;99.90
11446;DHT22;5779;64.178;15.432;2023-06-04T10:03:11;10.20;99.90
11446;DHT22;5779;64.178;15.432;2023-06-04T10:06:04;10.40;99.90
11446;DHT22;5779;64.178;15.432;2023-06-04T10:08:51;10.50;99.90
11446;DHT22;5779;64.178;15.432;2023-06-04T10:11:41;9.70;99.90
11446;DHT22;5779;64.178;15.432;2023-06-04T10:14:37;9.40;99.90
11446;DHT22;5779;64.178;15.432;2023-06-04T10:17:26;9.20;99.90
11446;DHT22;5779;64.178;15.432;2023-06-04T10:20:14;9.20;99.90
11446;DHT22;5779;64.178;15.432;2023-06-04T10:23:01;9.20;99.90
11446;DHT22;5779;64.178;15.432;2023-06-04T10:25:49;9.40;99.90
11446;DHT22;5779;64.178;15.432;2023-06-04T10:28:40;9.20;99.90
11446;DHT22;5779;64.178;15.432;2023-06-04T10:31:27;9.10;99.90
11446;DHT22;5779;64.178;15.432;2023-06-04T10:34:14;9.60;99.90
11446;DHT22;5779;64.178;15.432;2023-06-04T10:37:02;9.40;99.90
11446;DHT22;5779;64.178;15.432;2023-06-04T10:39:53;9.60;99.90
11446;DHT22;5779;64.178;15.432;2023-06-04T10:42:42;9.60;99.90
11446;DHT22;5779;64.178;15.432;2023-06-04T10:45:30;9.60;99.90
11446;DHT22;5779;64.178;15.432;2023-06-04T10:48:17;9.60;99.90
11446;DHT22;5779;64.178;15.432;2023-06-04T10:51:05;9.60;99.90
11446;DHT22;5779;64.178;15.432;2023-06-04T10:53:52;9.70;99.90
11446;DHT22;5779;64.178;15.432;2023-06-04T10:56:39;9.60;99.90
11446;DHT22;5779;64.178;15.432;2023-06-04T10:59:26;9.50;99.90
11446;DHT22;5779;64.178;15.432;2023-06-04T11:02:14;9.60;99.90
11446;DHT22;5779;64.178;15.432;2023-06-04T11:05:02;9.40;99.90
11446;DHT22;5779;64.178;15.432;2023-06-04T11:07:51;9.50;99.90
11446;DHT22;5779;64.178;15.432;2023-06-04T11:10:39;9.80;99.90
11446;DHT22;5779;64.178;15.432;2023-06-04T11:13:27;10.00;99.90
11446;DHT22;5779;64.178;15.432;2023-06-04T11:16:17;9.70;99.90
11446;DHT22;5779;64.178;15.432;2023-06-04T11:19:05;9.40;99.90
11446;DHT22;5779;64.178;15.432;2023-06-04T11:21:53;9.30;99.90
11446;DHT22;5779;64.178;15.432;2023-06-04T11:24:40;9.20;99.90
11446;DHT22;5779;64.178;15.432;2023-06-04T11:27:27;9.20;99.90
11446;DHT22;5779;64.178;15.432;2023-06-04T11:30:14;9.20;99.90
11446;DHT22;5779;64.178;15.432;2023-06-04T11:33:02;9.40;99.90
11446;DHT22;5779;64.178;15.432;2023-06-04T11:35:50;9.30;99.90
11446;DHT22;5779;64.178;15.432;2023-06-04T11:38:37;9.50;99.90
11446;DHT22;5779;64.178;15.432;2023-06-04T11:41:24;9.50;99.90
11446;DHT22;5779;64.178;15.432;2023-06-04T11:44:14;9.40;99.90
11446;DHT22;5779;64.178;15.432;2023-06-04T11:47:00;9.40;99.90
11446;DHT22;5779;64.178;15.432;2023-06-04T11:49:47;9.30;99.90
11446;DHT22;5779;64.178;15.432;2023-06-04T11:52:36;9.10;99.90
11446;DHT22;5779;64.178;15.432;2023-06-04T11:55:24;9.10;99.90
11446;DHT22;5779;64.178;15.432;2023-06-04T11:58:12;9.10;99.90
11446;DHT22;5779;64.178;15.432;2023-06-04T12:00:59;9.20;99.90
11446;DHT22;5779;64.178;15.432;2023-06-04T12:03:46;9.00;99.90
11446;DHT22;5779;64.178;15.432;2023-06-04T12:06:33;8.90;99.90
11446;DHT22;5779;64.178;15.432;2023-06-04T12:09:22;8.90;99.90
11446;DHT22;5779;64.178;15.432;2023-06-04T12:12:12;9.00;99.90
11446;DHT22;5779;64.178;15.432;2023-06-04T12:15:00;9.40;99.90
11446;DHT22;5779;64.178;15.432;2023-06-04T12:17:51;10.30;99.90
11446;DHT22;5779;64.178;15.432;2023-06-04T12:20:39;9.70;99.90
11446;DHT22;5779;64.178;15.432;2023-06-04T12:23:27;9.20;99.90
11446;DHT22;5779;64.178;15.432;2023-06-04T12:26:24;9.00;99.90
11446;DHT22;5779;64.178;15.432;2023-06-04T12:29:16;9.20;99.90
11446;DHT22;5779;64.178;15.432;2023-06-04T12:32:06;9.30;99.90
11446;DHT22;5779;64.178;15.432;2023-06-04T12:34:55;9.40;99.90
11446;DHT22;5779;64.178;15.432;2023-06-04T12:37:42;9.20;99.90
11446;DHT22;5779;64.178;15.432;2023-06-04T12:40:29;9.50;99.90
11446;DHT22;5779;64.178;15.432;2023-06-04T12:43:17;9.50;99.90
11446;DHT22;5779;64.178;15.432;2023-06-04T12:46:04;9.00;99.90
11446;DHT22;5779;64.178;15.432;2023-06-04T12:48:51;9.10;99.90
11446;DHT22;5779;64.178;15.432;2023-06-04T12:51:39;9.00;99.90
11446;DHT22;5779;64.178;15.432;2023-06-04T12:54:26;8.90;99.90
11446;DHT22;5779;64.178;15.432;2023-06-04T12:57:13;8.90;99.90
11446;DHT22;5779;64.178;15.432;2023-06-04T13:00:01;9.10;99.90
11446;DHT22;5779;64.178;15.432;2023-06-04T13:02:50;9.00;99.90
11446;DHT22;5779;64.178;15.432;2023-06-04T13:05:37;9.20;99.90
11446;DHT22;5779;64.178;15.432;2023-06-04T13:08:24;9.60;99.90
11446;DHT22;5779;64.178;15.432;2023-06-04T13:11:11;10.10;99.90
11446;DHT22;5779;64.178;15.432;2023-06-04T13:13:58;10.00;99.90
11446;DHT22;5779;64.178;15.432;2023-06-04T13:16:46;9.80;99.90
11446;DHT22;5779;64.178;15.432;2023-06-04T13:19:35;9.40;99.90
11446;DHT22;5779;64.178;15.432;2023-06-04T13:22:22;9.20;99.90
11446;DHT22;5779;64.178;15.432;2023-06-04T13:25:09;9.40;99.90
11446;DHT22;5779;64.178;15.432;2023-06-04T13:27:56;8.90;99.90
11446;DHT22;5779;64.178;15.432;2023-06-04T13:30:42;9.00;99.90
11446;DHT22;5779;64.178;15.432;2023-06-04T13:33:31;9.10;99.90
11446;DHT22;5779;64.178;15.432;2023-06-04T13:36:19;9.10;99.90
11446;DHT22;5779;64.178;15.432;2023-06-04T13:39:06;9.20;99.90
11446;DHT22;5779;64.178;15.432;2023-06-04T13:41:53;9.30;99.90
11446;DHT22;5779;64.178;15.432;2023-06-04T13:44:40;9.50;99.90
11446;DHT22;5779;64.178;15.432;2023-06-04T13:47:27;9.20;99.90
11446;DHT22;5779;64.178;15.432;2023-06-04T13:50:15;9.40;99.90
11446;DHT22;5779;64.178;15.432;2023-06-04T13:53:02;9.40;99.90
11446;DHT22;5779;64.178;15.432;2023-06-04T13:55:49;9.30;99.90
11446;DHT22;5779;64.178;15.432;2023-06-04T13:58:42;9.30;99.90
11446;DHT22;5779;64.178;15.432;2023-06-04T14:01:29;9.40;99.90
11446;DHT22;5779;64.178;15.432;2023-06-04T14:04:16;9.20;99.90
11446;DHT22;5779;64.178;15.432;2023-06-04T14:07:05;9.20;99.90
11446;DHT22;5779;64.178;15.432;2023-06-04T14:09:52;9.30;99.90
11446;DHT22;5779;64.178;15.432;2023-06-04T14:12:40;9.60;99.90
11446;DHT22;5779;64.178;15.432;2023-06-04T14:15:27;10.10;99.90
11446;DHT22;5779;64.178;15.432;2023-06-04T14:18:14;10.30;99.90
11446;DHT22;5779;64.178;15.432;2023-06-04T14:21:02;10.30;99.90
11446;DHT22;5779;64.178;15.432;2023-06-04T14:23:50;9.70;99.90
11446;DHT22;5779;64.178;15.432;2023-06-04T14:26:37;9.60;99.90
11446;DHT22;5779;64.178;15.432;2023-06-04T14:29:25;9.50;99.90
11446;DHT22;5779;64.178;15.432;2023-06-04T14:32:12;9.20;99.90
11446;DHT22;5779;64.178;15.432;2023-06-04T14:34:59;9.10;99.90
11446;DHT22;5779;64.178;15.432;2023-06-04T14:37:46;9.10;99.90
11446;DHT22;5779;64.178;15.432;2023-06-04T14:40:35;9.10;99.90
11446;DHT22;5779;64.178;15.432;2023-06-04T14:43:24;8.90;99.90
11446;DHT22;5779;64.178;15.432;2023-06-04T14:46:11;9.00;99.90
11446;DHT22;5779;64.178;15.432;2023-06-04T14:48:58;9.10;99.90
11446;DHT22;5779;64.178;15.432;2023-06-04T14:51:45;9.20;99.90
11446;DHT22;5779;64.178;15.432;2023-06-04T14:54:33;9.10;99.90
11446;DHT22;5779;64.178;15.432;2023-06-04T14:57:22;9.30;99.90
11446;DHT22;5779;64.178;15.432;2023-06-04T15:00:09;9.70;99.90
11446;DHT22;5779;64.178;15.432;2023-06-04T15:02:57;9.50;99.90
11446;DHT22;5779;64.178;15.432;2023-06-04T15:05:45;9.20;99.90
11446;DHT22;5779;64.178;15.432;2023-06-04T15:08:32;9.10;99.90
11446;DHT22;5779;64.178;15.432;2023-06-04T15:11:19;9.30;99.90
11446;DHT22;5779;64.178;15.432;2023-06-04T15:14:08;9.20;99.90
11446;DHT22;5779;64.178;15.432;2023-06-04T15:16:56;9.20;99.90
11446;DHT22;5779;64.178;15.432;2023-06-04T15:19:43;9.40;99.90
11446;DHT22;5779;64.178;15.432;2023-06-04T15:22:31;9.60;99.90
11446;DHT22;5779;64.178;15.432;2023-06-04T15:25:18;9.50;99.90
11446;DHT22;5779;64.178;15.432;2023-06-04T15:28:05;9.50;99.90
11446;DHT22;5779;64.178;15.432;2023-06-04T15:30:53;9.30;99.90
11446;DHT22;5779;64.178;15.432;2023-06-04T15:33:40;9.40;99.90
11446;DHT22;5779;64.178;15.432;2023-06-04T15:36:27;9.20;99.90
11446;DHT22;5779;64.178;15.432;2023-06-04T15:39:14;9.20;99.90
11446;DHT22;5779;64.178;15.432;2023-06-04T15:42:01;9.20;99.90
11446;DHT22;5779;64.178;15.432;2023-06-04T15:44:48;9.40;99.90
11446;DHT22;5779;64.178;15.432;2023-06-04T15:47:36;9.20;99.90
11446;DHT22;5779;64.178;15.432;2023-06-04T15:50:23;9.60;99.90
11446;DHT22;5779;64.178;15.432;2023-06-04T15:53:10;9.80;99.90
11446;DHT22;5779;64.178;15.432;2023-06-04T15:55:57;9.70;99.90
11446;DHT22;5779;64.178;15.432;2023-06-04T15:58:44;9.70;99.90
11446;DHT22;5779;64.178;15.432;2023-06-04T16:01:31;9.40;99.90
11446;DHT22;5779;64.178;15.432;2023-06-04T16:04:19;9.30;99.90
11446;DHT22;5779;64.178;15.432;2023-06-04T16:07:06;9.40;99.90
11446;DHT22;5779;64.178;15.432;2023-06-04T16:09:53;9.50;99.90
11446;DHT22;5779;64.178;15.432;2023-06-04T16:12:40;9.40;99.90
11446;DHT22;5779;64.178;15.432;2023-06-04T16:15:27;9.30;99.90
11446;DHT22;5779;64.178;15.432;2023-06-04T16:18:14;9.30;99.90
11446;DHT22;5779;64.178;15.432;2023-06-04T16:21:02;9.20;99.90
11446;DHT22;5779;64.178;15.432;2023-06-04T16:23:49;9.10;99.90
11446;DHT22;5779;64.178;15.432;2023-06-04T16:26:36;9.00;99.90
11446;DHT22;5779;64.178;15.432;2023-06-04T16:29:23;8.90;99.90
11446;DHT22;5779;64.178;15.432;2023-06-04T16:32:10;8.80;99.90
11446;DHT22;5779;64.178;15.432;2023-06-04T16:34:57;8.70;99.90
11446;DHT22;5779;64.178;15.432;2023-06-04T16:37:48;8.60;99.90
11446;DHT22;5779;64.178;15.432;2023-06-04T16:40:35;8.70;99.90
11446;DHT22;5779;64.178;15.432;2023-06-04T16:43:22;8.80;99.90
11446;DHT22;5779;64.178;15.432;2023-06-04T16:46:09;8.80;99.90
11446;DHT22;5779;64.178;15.432;2023-06-04T16:48:56;8.90;99.90
11446;DHT22;5779;64.178;15.432;2023-06-04T16:51:43;8.90;99.90
11446;DHT22;5779;64.178;15.432;2023-06-04T16:54:32;8.80;99.90
11446;DHT22;5779;64.178;15.432;2023-06-04T16:57:19;8.90;99.90
11446;DHT22;5779;64.178;15.432;2023-06-04T17:00:07;8.90;99.90
11446;DHT22;5779;64.178;15.432;2023-06-04T17:02:55;9.00;99.90
11446;DHT22;5779;64.178;15.432;2023-06-04T17:05:42;9.10;99.90
11446;DHT22;5779;64.178;15.432;2023-06-04T17:08:29;9.00;99.90
11446;DHT22;5779;64.178;15.432;2023-06-04T17:11:17;9.10;99.90
11446;DHT22;5779;64.178;15.432;2023-06-04T17:14:04;9.00;99.90
11446;DHT22;5779;64.178;15.432;2023-06-04T17:16:52;8.90;99.90
11446;DHT22;5779;64.178;15.432;2023-06-04T17:19:39;9.00;99.90
11446;DHT22;5779;64.178;15.432;2023-06-04T17:22:29;8.90;99.90
11446;DHT22;5779;64.178;15.432;2023-06-04T17:25:16;8.90;99.90
11446;DHT22;5779;64.178;15.432;2023-06-04T17:28:04;8.80;99.90
11446;DHT22;5779;64.178;15.432;2023-06-04T17:30:51;8.90;99.90
11446;DHT22;5779;64.178;15.432;2023-06-04T17:33:38;8.90;99.90
11446;DHT22;5779;64.178;15.432;2023-06-04T17:36:25;8.90;99.90
11446;DHT22;5779;64.178;15.432;2023-06-04T17:39:12;8.90;99.90
11446;DHT22;5779;64.178;15.432;2023-06-04T17:41:59;8.90;99.90
11446;DHT22;5779;64.178;15.432;2023-06-04T17:44:48;9.00;99.90
11446;DHT22;5779;64.178;15.432;2023-06-04T17:47:35;8.90;99.90
11446;DHT22;5779;64.178;15.432;2023-06-04T17:50:22;8.90;99.90
11446;DHT22;5779;64.178;15.432;2023-06-04T17:53:09;9.00;99.90
11446;DHT22;5779;64.178;15.432;2023-06-04T17:55:56;8.90;99.90
11446;DHT22;5779;64.178;15.432;2023-06-04T17:58:43;8.80;99.90